createdAt,value
2018-06-07T00:02:21.396Z,1.00
2018-06-07T00:04:54.355Z,1.00
2018-06-07T00:07:26.792Z,1.00
2018-06-07T00:09:58.990Z,1.00
2018-06-07T00:12:31.622Z,1.00
2018-06-07T00:15:04.312Z,1.00
2018-06-07T00:17:37.035Z,1.20
2018-06-07T00:20:10.700Z,1.00
2018-06-07T00:22:43.019Z,1.00
2018-06-07T00:25:15.577Z,1.00
2018-06-07T00:27:47.910Z,1.00
2018-06-07T00:30:20.558Z,1.00
2018-06-07T00:32:53.738Z,1.00
2018-06-07T00:35:30.462Z,1.00
2018-06-07T00:38:03.190Z,1.00
2018-06-07T00:40:35.164Z,1.00
2018-06-07T00:43:07.546Z,2.60
2018-06-07T00:45:39.912Z,1.00
2018-06-07T00:48:12.525Z,1.00
2018-06-07T00:50:45.015Z,1.40
2018-06-07T00:53:17.430Z,2.80
2018-06-07T00:55:49.627Z,3.40
2018-06-07T00:58:22.074Z,3.20
2018-06-07T01:00:56.072Z,3.80
2018-06-07T01:03:28.533Z,3.60
2018-06-07T01:06:00.980Z,2.70
2018-06-07T01:08:33.045Z,1.70
2018-06-07T01:11:05.306Z,2.80
2018-06-07T01:13:38.690Z,4.60
2018-06-07T01:16:11.218Z,5.40
2018-06-07T01:18:43.731Z,6.70
2018-06-07T01:23:47.793Z,8.00
2018-06-07T01:26:20.119Z,8.20
2018-06-07T01:28:52.300Z,8.10
2018-06-07T01:31:29.456Z,8.40
2018-06-07T01:34:02.053Z,8.50
2018-06-07T01:36:34.470Z,9.60
2018-06-07T01:39:12.026Z,9.30
2018-06-07T01:41:44.816Z,9.20
2018-06-07T01:44:17.183Z,9.70
2018-06-07T01:46:49.658Z,9.80
2018-06-07T01:49:21.841Z,9.70
2018-06-07T01:51:54.069Z,9.60
2018-06-07T01:54:26.609Z,10.70
2018-06-07T01:56:59.065Z,10.40
2018-06-07T01:59:31.430Z,10.50
2018-06-07T02:02:04.128Z,10.80
2018-06-07T02:04:36.635Z,10.90
2018-06-07T02:07:09.156Z,12.60
2018-06-07T02:09:41.457Z,11.20
2018-06-07T02:12:14.087Z,11.60
2018-06-07T02:14:46.759Z,12.00
2018-06-07T02:19:50.413Z,12.30
2018-06-07T02:22:23.554Z,12.40
2018-06-07T02:24:55.896Z,13.10
2018-06-07T02:27:28.909Z,13.00
2018-06-07T02:30:01.242Z,14.60
2018-06-07T02:32:33.953Z,13.40
2018-06-07T02:35:06.465Z,13.60
2018-06-07T02:37:38.881Z,13.80
2018-06-07T02:40:11.155Z,14.70
2018-06-07T02:42:43.512Z,15.40
2018-06-07T02:45:15.876Z,15.80
2018-06-07T02:47:48.312Z,15.70
2018-06-07T02:50:21.065Z,15.90
2018-06-07T02:52:53.503Z,16.30
2018-06-07T02:55:25.797Z,16.70
2018-06-07T02:57:58.414Z,16.70
2018-06-07T03:00:31.556Z,17.00
2018-06-07T03:03:03.837Z,17.10
2018-06-07T03:05:36.001Z,18.00
2018-06-07T03:08:08.960Z,18.10
2018-06-07T03:10:41.562Z,18.90
2018-06-07T03:13:14.796Z,19.80
2018-06-07T03:15:47.146Z,20.70
2018-06-07T03:18:19.364Z,21.60
2018-06-07T03:20:51.743Z,21.60
2018-06-07T03:23:24.144Z,21.90
2018-06-07T03:25:56.539Z,22.10
2018-06-07T03:28:28.835Z,22.70
2018-06-07T03:31:00.978Z,23.10
2018-06-07T03:33:33.451Z,23.20
2018-06-07T03:36:06.030Z,23.60
2018-06-07T03:38:39.192Z,24.20
2018-06-07T03:41:11.590Z,24.30
2018-06-07T03:43:44.173Z,25.00
2018-06-07T03:46:16.993Z,25.10
2018-06-07T03:48:49.540Z,25.30
2018-06-07T03:51:21.884Z,25.30
2018-06-07T03:53:54.448Z,25.40
2018-06-07T03:56:26.684Z,25.80
2018-06-07T03:58:58.780Z,25.70
2018-06-07T04:01:31.336Z,26.10
2018-06-07T04:04:04.044Z,26.40
2018-06-07T04:06:36.371Z,26.70
2018-06-07T04:09:10.661Z,26.60
2018-06-07T04:11:42.811Z,27.10
2018-06-07T04:14:16.352Z,27.30
2018-06-07T04:16:49.414Z,27.50
2018-06-07T04:19:21.656Z,27.30
2018-06-07T04:21:54.338Z,27.20
2018-06-07T04:24:26.824Z,28.00
2018-06-07T04:26:58.949Z,27.90
2018-06-07T04:29:31.307Z,28.00
2018-06-07T04:32:03.902Z,28.20
2018-06-07T04:34:36.453Z,28.60
2018-06-07T04:37:08.639Z,29.00
2018-06-07T04:39:40.934Z,28.70
2018-06-07T04:42:14.276Z,29.20
2018-06-07T04:44:46.741Z,28.80
2018-06-07T04:47:18.858Z,29.00
2018-06-07T04:49:51.887Z,29.40
2018-06-07T04:52:24.339Z,30.30
2018-06-07T04:54:56.503Z,30.00
2018-06-07T04:57:28.823Z,30.40
2018-06-07T05:00:01.116Z,30.50
2018-06-07T05:02:34.631Z,30.50
2018-06-07T05:05:07.080Z,31.60
2018-06-07T05:07:39.441Z,31.00
2018-06-07T05:10:11.777Z,32.00
2018-06-07T05:12:44.085Z,31.90
2018-06-07T05:15:16.656Z,31.70
2018-06-07T05:17:49.685Z,32.10
2018-06-07T05:20:22.069Z,32.50
2018-06-07T05:22:54.234Z,32.40
2018-06-07T05:25:26.493Z,33.00
2018-06-07T05:27:58.924Z,33.10
2018-06-07T05:30:31.525Z,33.10
2018-06-07T05:33:03.819Z,33.10
2018-06-07T05:35:36.328Z,33.50
2018-06-07T05:38:08.992Z,34.20
2018-06-07T05:40:41.252Z,34.50
2018-06-07T05:43:13.514Z,34.60
2018-06-07T05:48:16.737Z,34.70
2018-06-07T05:50:49.063Z,35.00
2018-06-07T05:53:21.733Z,35.70
2018-06-07T05:55:53.971Z,35.50
2018-06-07T05:58:26.477Z,35.60
2018-06-07T06:00:58.695Z,35.40
2018-06-07T06:03:31.103Z,35.90
2018-06-07T06:06:03.721Z,35.80
2018-06-07T06:08:36.052Z,36.40
2018-06-07T06:11:08.290Z,36.90
2018-06-07T06:13:40.837Z,37.40
2018-06-07T06:16:13.224Z,38.00
2018-06-07T06:18:45.803Z,37.90
2018-06-07T06:21:18.315Z,38.50
2018-06-07T06:23:50.481Z,38.70
2018-06-07T06:26:22.880Z,38.10
2018-06-07T06:28:55.336Z,38.70
2018-06-07T06:31:27.716Z,38.10
2018-06-07T06:33:59.875Z,38.20
2018-06-07T06:36:32.646Z,38.20
2018-06-07T06:39:05.543Z,38.50
2018-06-07T06:41:37.790Z,38.20
2018-06-07T06:44:10.070Z,38.40
2018-06-07T06:46:42.266Z,38.60
2018-06-07T06:49:14.454Z,38.60
2018-06-07T06:51:46.578Z,39.40
2018-06-07T06:54:19.046Z,40.60
2018-06-07T06:56:51.534Z,41.00
2018-06-07T06:59:23.864Z,41.70
2018-06-07T07:01:56.269Z,41.40
2018-06-07T07:04:28.529Z,41.70
2018-06-07T07:07:00.873Z,42.00
2018-06-07T07:09:33.233Z,42.40
2018-06-07T07:12:05.668Z,43.10
2018-06-07T07:14:37.970Z,43.80
2018-06-07T07:17:10.580Z,43.00
2018-06-07T07:19:42.929Z,42.60
2018-06-07T07:22:15.297Z,42.70
2018-06-07T07:24:47.381Z,41.90
2018-06-07T07:27:20.013Z,42.10
2018-06-07T07:29:52.334Z,42.30
2018-06-07T07:32:24.872Z,42.70
2018-06-07T07:34:57.097Z,42.30
2018-06-07T07:37:29.571Z,42.10
2018-06-07T07:40:02.289Z,42.10
2018-06-07T07:42:35.107Z,42.30
2018-06-07T07:45:07.497Z,42.30
2018-06-07T07:47:39.723Z,41.80
2018-06-07T07:50:12.512Z,41.80
2018-06-07T07:52:45.093Z,42.30
2018-06-07T07:55:17.644Z,42.60
2018-06-07T07:57:50.075Z,42.10
2018-06-07T08:00:22.218Z,41.80
2018-06-07T08:02:55.043Z,42.10
2018-06-07T08:05:27.189Z,42.20
2018-06-07T08:07:59.540Z,41.70
2018-06-07T08:10:31.693Z,41.80
2018-06-07T08:13:03.997Z,42.50
2018-06-07T08:15:36.162Z,41.70
2018-06-07T08:18:08.550Z,42.00
2018-06-07T08:20:41.493Z,41.50
2018-06-07T08:23:13.868Z,41.10
2018-06-07T08:25:46.053Z,40.70
2018-06-07T08:28:18.653Z,40.10
2018-06-07T08:30:50.973Z,40.70
2018-06-07T08:33:23.170Z,40.80
2018-06-07T08:35:55.697Z,39.30
2018-06-07T08:38:28.294Z,39.50
2018-06-07T08:41:00.644Z,38.50
2018-06-07T08:43:33.251Z,39.10
2018-06-07T08:46:05.795Z,38.40
2018-06-07T08:48:38.130Z,38.50
2018-06-07T08:51:10.251Z,38.70
2018-06-07T08:53:43.049Z,38.20
2018-06-07T08:56:15.436Z,39.00
2018-06-07T08:58:47.597Z,38.30
2018-06-07T09:01:19.950Z,37.90
2018-06-07T09:03:52.508Z,39.10
2018-06-07T09:06:25.705Z,38.40
2018-06-07T09:08:58.458Z,38.20
2018-06-07T09:11:31.078Z,37.50
2018-06-07T09:14:03.706Z,37.20
2018-06-07T09:16:36.011Z,37.50
2018-06-07T09:19:08.423Z,37.30
2018-06-07T09:21:40.898Z,37.70
2018-06-07T09:24:13.445Z,37.80
2018-06-07T09:26:45.646Z,37.70
2018-06-07T09:29:17.853Z,38.00
2018-06-07T09:31:50.117Z,38.20
2018-06-07T09:34:22.555Z,38.10
2018-06-07T09:36:54.677Z,37.80
2018-06-07T09:39:27.232Z,37.60
2018-06-07T09:41:59.745Z,38.20
2018-06-07T09:44:31.828Z,37.60
2018-06-07T09:47:03.994Z,38.20
2018-06-07T09:49:36.938Z,37.20
2018-06-07T09:52:09.409Z,36.90
2018-06-07T09:54:41.789Z,36.90
2018-06-07T09:57:14.081Z,37.20
2018-06-07T09:59:46.313Z,37.70
2018-06-07T10:02:18.904Z,37.20
2018-06-07T10:04:51.108Z,38.20
2018-06-07T10:07:24.288Z,37.40
2018-06-07T10:09:56.249Z,37.60
2018-06-07T10:12:29.110Z,37.70
2018-06-07T10:15:01.645Z,37.40
2018-06-07T10:20:05.633Z,36.80
2018-06-07T10:22:38.945Z,37.30
2018-06-07T10:25:11.288Z,37.70
2018-06-07T10:27:43.632Z,37.40
2018-06-07T10:30:16.116Z,37.30
2018-06-07T10:32:48.503Z,37.50
2018-06-07T10:35:20.879Z,37.70
2018-06-07T10:37:53.033Z,37.20
2018-06-07T10:40:25.425Z,38.10
2018-06-07T10:42:57.798Z,37.90
2018-06-07T10:45:29.956Z,37.70
2018-06-07T10:48:02.769Z,37.70
2018-06-07T10:50:35.730Z,37.60
2018-06-07T10:53:08.120Z,37.70
2018-06-07T10:55:40.452Z,37.90
2018-06-07T10:58:12.721Z,38.10
2018-06-07T11:00:44.973Z,38.10
2018-06-07T11:03:17.678Z,38.30
2018-06-07T11:05:50.023Z,39.10
2018-06-07T11:08:23.416Z,38.80
2018-06-07T11:10:55.620Z,38.80
2018-06-07T11:13:27.944Z,38.40
2018-06-07T11:16:00.128Z,38.70
2018-06-07T11:18:33.150Z,39.10
2018-06-07T11:21:05.709Z,39.20
2018-06-07T11:23:38.532Z,40.00
2018-06-07T11:26:11.044Z,39.20
2018-06-07T11:28:43.964Z,39.20
2018-06-07T11:31:16.676Z,38.40
2018-06-07T11:33:48.947Z,37.60
2018-06-07T11:36:21.347Z,38.20
2018-06-07T11:38:53.522Z,37.90
2018-06-07T11:41:26.145Z,38.40
2018-06-07T11:43:58.360Z,38.30
2018-06-07T11:46:30.556Z,38.70
2018-06-07T11:49:02.907Z,37.90
2018-06-07T11:51:35.311Z,38.60
2018-06-07T11:56:38.473Z,39.10
2018-06-07T11:59:10.699Z,38.80
2018-06-07T12:01:43.593Z,39.00
2018-06-07T12:04:15.709Z,38.60
2018-06-07T12:06:47.916Z,39.50
2018-06-07T12:09:21.452Z,38.20
2018-06-07T12:11:54.023Z,38.50
2018-06-07T12:14:26.514Z,38.20
2018-06-07T12:16:58.589Z,38.90
2018-06-07T12:19:30.862Z,39.20
2018-06-07T12:22:03.429Z,39.20
2018-06-07T12:24:36.284Z,38.90
2018-06-07T12:27:08.627Z,38.40
2018-06-07T12:29:40.767Z,38.30
2018-06-07T12:32:12.986Z,39.30
2018-06-07T12:34:45.311Z,40.00
2018-06-07T12:37:17.459Z,40.10
2018-06-07T12:39:49.896Z,38.50
2018-06-07T12:42:22.001Z,39.40
2018-06-07T12:44:54.725Z,39.60
2018-06-07T12:47:27.129Z,39.70
2018-06-07T12:49:59.476Z,39.10
2018-06-07T12:52:32.137Z,38.30
2018-06-07T12:55:04.286Z,38.10
2018-06-07T12:57:36.760Z,38.40
2018-06-07T13:00:09.098Z,38.50
2018-06-07T13:02:41.470Z,38.80
2018-06-07T13:05:14.009Z,38.20
2018-06-07T13:07:46.436Z,38.80
2018-06-07T13:10:19.633Z,39.50
2018-06-07T13:12:51.830Z,38.80
2018-06-07T13:15:24.359Z,39.60
2018-06-07T13:17:56.550Z,38.60
2018-06-07T13:20:29.247Z,38.80
2018-06-07T13:25:33.661Z,39.90
2018-06-07T13:28:05.954Z,39.30
2018-06-07T13:30:38.392Z,40.10
2018-06-07T13:33:10.490Z,39.40
2018-06-07T13:35:43.253Z,38.50
2018-06-07T13:38:15.389Z,38.30
2018-06-07T13:40:47.729Z,38.70
2018-06-07T13:43:20.057Z,39.50
2018-06-07T13:45:52.411Z,39.70
2018-06-07T13:48:24.764Z,39.30
2018-06-07T13:50:57.136Z,39.00
2018-06-07T13:53:29.519Z,39.70
2018-06-07T13:56:02.278Z,38.60
2018-06-07T13:58:34.689Z,38.60
2018-06-07T14:01:07.553Z,38.80
2018-06-07T14:03:41.467Z,39.10
2018-06-07T14:06:14.003Z,38.70
2018-06-07T14:08:46.481Z,39.10
2018-06-07T14:11:19.163Z,38.70
2018-06-07T14:13:51.970Z,38.60
2018-06-07T14:16:23.993Z,38.40
2018-06-07T14:18:55.925Z,39.70
2018-06-07T14:21:27.880Z,39.30
2018-06-07T14:24:00.241Z,38.70
2018-06-07T14:26:33.023Z,38.00
2018-06-07T14:29:05.015Z,38.40
2018-06-07T14:31:37.393Z,38.00
2018-06-07T14:36:40.589Z,36.50
2018-06-07T14:39:12.601Z,37.90
2018-06-07T14:41:44.515Z,37.50
2018-06-07T14:44:16.480Z,36.50
2018-06-07T14:46:48.401Z,37.10
2018-06-07T14:49:20.637Z,36.80
2018-06-07T14:51:52.602Z,37.10
2018-06-07T14:54:24.734Z,36.60
2018-06-07T14:56:56.948Z,37.00
2018-06-07T14:59:28.853Z,36.90
2018-06-07T15:02:01.181Z,37.30
2018-06-07T15:04:33.395Z,37.30
2018-06-07T15:07:05.770Z,35.90
2018-06-07T15:12:08.560Z,36.80
2018-06-07T15:14:41.714Z,35.90
2018-06-07T15:17:13.787Z,35.50
2018-06-07T15:19:46.108Z,34.80
2018-06-07T15:22:18.032Z,36.50
2018-06-07T15:24:49.987Z,37.10
2018-06-07T15:27:22.589Z,36.10
2018-06-07T15:29:54.642Z,36.30
2018-06-07T15:34:57.863Z,37.40
2018-06-07T15:37:30.158Z,37.10
2018-06-07T15:40:02.353Z,36.50
2018-06-07T15:42:34.730Z,36.70
2018-06-07T15:45:06.881Z,34.20
2018-06-07T15:47:39.081Z,37.00
2018-06-07T15:50:11.410Z,35.30
2018-06-07T15:52:43.834Z,36.30
2018-06-07T15:55:16.425Z,37.40
2018-06-07T15:57:48.489Z,35.30
2018-06-07T16:00:20.478Z,36.50
2018-06-07T16:02:52.618Z,34.40
2018-06-07T16:05:24.792Z,34.30
2018-06-07T16:07:58.054Z,31.50
2018-06-07T16:10:30.141Z,33.30
2018-06-07T16:13:03.123Z,32.70
2018-06-07T16:15:35.290Z,32.30
2018-06-07T16:18:07.457Z,33.60
2018-06-07T16:20:39.376Z,33.10
2018-06-07T16:23:11.390Z,31.10
2018-06-07T16:25:43.545Z,32.70
2018-06-07T16:28:16.119Z,31.90
2018-06-07T16:30:48.489Z,33.60
2018-06-07T16:33:20.364Z,32.70
2018-06-07T16:35:52.728Z,30.30
2018-06-07T16:38:24.808Z,29.80
2018-06-07T16:40:57.063Z,30.70
2018-06-07T16:48:30.975Z,30.10
2018-06-07T16:51:03.171Z,29.70
2018-06-07T16:53:35.298Z,28.90
2018-06-07T16:56:07.497Z,28.70
2018-06-07T16:58:39.642Z,30.00
2018-06-07T17:01:11.580Z,32.40
2018-06-07T17:03:43.723Z,31.40
2018-06-07T17:06:15.757Z,29.90
2018-06-07T17:11:18.545Z,28.70
2018-06-07T17:13:51.554Z,30.30
2018-06-07T17:16:23.540Z,31.00
2018-06-07T17:18:56.284Z,28.60
2018-06-07T17:21:28.649Z,30.10
2018-06-07T17:24:00.778Z,29.10
2018-06-07T17:26:32.777Z,31.00
2018-06-07T17:29:06.821Z,30.50
2018-06-07T17:31:39.972Z,28.30
2018-06-07T17:34:12.157Z,29.00
2018-06-07T17:36:44.369Z,28.00
2018-06-07T17:39:16.645Z,28.60
2018-06-07T17:41:48.862Z,28.80
2018-06-07T17:44:20.856Z,26.00
2018-06-07T17:46:53.593Z,26.40
2018-06-07T17:49:25.791Z,23.40
2018-06-07T17:51:58.072Z,26.70
2018-06-07T17:54:30.240Z,24.70
2018-06-07T17:57:02.267Z,28.10
2018-06-07T17:59:34.629Z,26.80
2018-06-07T18:02:06.995Z,26.10
2018-06-07T18:04:39.507Z,25.90
2018-06-07T18:07:11.750Z,26.40
2018-06-07T18:09:44.733Z,25.20
2018-06-07T18:12:17.057Z,27.90
2018-06-07T18:14:50.331Z,25.80
2018-06-07T18:17:22.461Z,26.30
2018-06-07T18:19:54.586Z,26.80
2018-06-07T18:22:26.690Z,26.60
2018-06-07T18:24:58.853Z,26.80
2018-06-07T18:27:31.026Z,26.20
2018-06-07T18:30:03.290Z,26.00
2018-06-07T18:32:35.674Z,26.70
2018-06-07T18:35:07.636Z,25.30
2018-06-07T18:37:39.995Z,25.60
2018-06-07T18:40:12.019Z,25.90
2018-06-07T18:42:44.213Z,27.40
2018-06-07T18:45:16.137Z,25.70
2018-06-07T18:47:48.522Z,26.00
2018-06-07T18:50:22.160Z,28.10
2018-06-07T18:52:55.627Z,25.80
2018-06-07T18:55:27.746Z,26.60
2018-06-07T18:58:00.093Z,26.40
2018-06-07T19:00:32.477Z,25.80
2018-06-07T19:03:04.632Z,25.00
2018-06-07T19:05:37.230Z,26.30
2018-06-07T19:08:09.652Z,24.80
2018-06-07T19:10:42.051Z,27.90
2018-06-07T19:13:20.249Z,24.80
2018-06-07T19:15:53.200Z,26.30
2018-06-07T19:18:25.493Z,24.00
2018-06-07T19:20:58.324Z,25.30
2018-06-07T19:23:30.750Z,22.40
2018-06-07T19:26:08.468Z,23.40
2018-06-07T19:31:12.089Z,24.30
2018-06-07T19:36:20.215Z,24.20
2018-06-07T19:38:57.095Z,25.20
2018-06-07T19:41:34.633Z,25.00
2018-06-07T19:44:07.322Z,20.80
2018-06-07T19:46:39.523Z,20.50
2018-06-07T19:49:11.894Z,21.20
2018-06-07T19:51:44.686Z,21.50
2018-06-07T19:54:18.358Z,22.70
2018-06-07T19:56:50.830Z,25.10
2018-06-07T19:59:23.408Z,22.50
2018-06-07T20:01:55.627Z,23.80
2018-06-07T20:04:28.588Z,23.70
2018-06-07T20:07:00.741Z,21.50
2018-06-07T20:09:33.040Z,23.90
2018-06-07T20:12:05.184Z,21.70
2018-06-07T20:14:37.759Z,22.10
2018-06-07T20:17:10.128Z,22.80
2018-06-07T20:19:42.497Z,21.70
2018-06-07T20:22:14.884Z,20.20
2018-06-07T20:24:48.887Z,21.10
2018-06-07T20:27:22.273Z,21.80
2018-06-07T20:29:55.691Z,21.70
2018-06-07T20:32:28.881Z,22.40
2018-06-07T20:35:03.631Z,20.50
2018-06-07T20:37:35.704Z,18.60
2018-06-07T20:40:09.465Z,17.70
2018-06-07T20:45:23.500Z,18.50
2018-06-07T20:55:52.547Z,19.90
2018-06-07T21:01:07.941Z,18.10
2018-06-07T21:03:43.383Z,19.90
2018-06-07T21:08:56.446Z,16.60
2018-06-07T21:11:32.994Z,15.90
2018-06-07T21:16:39.873Z,17.30
2018-06-07T21:21:53.504Z,18.30
2018-06-07T21:24:48.174Z,17.70
2018-06-07T21:27:21.983Z,22.60
2018-06-07T21:37:54.610Z,15.80
2018-06-07T21:40:30.766Z,15.20
2018-06-07T21:43:05.652Z,17.00
2018-06-07T21:45:42.008Z,15.30
2018-06-07T21:48:20.001Z,16.90
2018-06-07T21:50:56.635Z,17.20
2018-06-07T21:53:30.714Z,16.50
2018-06-07T21:56:07.407Z,15.80
2018-06-07T21:58:40.166Z,16.80
2018-06-07T22:03:51.293Z,14.70
2018-06-07T22:06:24.143Z,17.60
2018-06-07T22:08:57.184Z,13.00
2018-06-07T22:11:29.444Z,13.30
2018-06-07T22:14:02.428Z,14.70
2018-06-07T22:16:34.630Z,14.80
2018-06-07T22:21:38.741Z,12.80
2018-06-07T22:24:11.250Z,13.10
2018-06-07T22:26:43.843Z,12.40
2018-06-07T22:29:17.313Z,14.10
2018-06-07T22:31:51.625Z,10.80
2018-06-07T22:34:27.611Z,12.80
2018-06-07T22:37:00.673Z,16.60
2018-06-07T22:39:34.599Z,14.30
2018-06-07T22:42:07.972Z,12.50
2018-06-07T22:44:40.414Z,12.70
2018-06-07T22:47:13.378Z,15.40
2018-06-07T22:49:46.028Z,15.40
2018-06-07T22:52:18.564Z,16.60
2018-06-07T22:54:50.715Z,14.40
2018-06-07T22:57:24.131Z,15.10
2018-06-07T22:59:56.916Z,14.80
2018-06-07T23:02:29.751Z,13.60
2018-06-07T23:05:02.408Z,14.20
2018-06-07T23:07:35.145Z,14.30
2018-06-07T23:10:08.068Z,14.90
2018-06-07T23:12:40.757Z,14.40
2018-06-07T23:15:13.877Z,16.00
2018-06-07T23:17:46.843Z,12.00
2018-06-07T23:20:19.917Z,14.50
2018-06-07T23:25:23.818Z,14.20
2018-06-07T23:27:56.917Z,14.00
2018-06-07T23:30:29.274Z,15.30
2018-06-07T23:33:01.990Z,13.30
2018-06-07T23:35:34.188Z,12.60
2018-06-07T23:38:06.503Z,12.50
2018-06-07T23:40:40.105Z,13.30
2018-06-07T23:43:12.515Z,13.90
2018-06-07T23:45:44.827Z,11.50
2018-06-07T23:48:17.472Z,12.10
2018-06-07T23:50:50.076Z,12.50
2018-06-07T23:53:22.468Z,14.10
2018-06-07T23:55:55.452Z,12.60
2018-06-07T23:58:28.496Z,13.60
